sensor_id;sensor_type;location;lat;lon;timestamp;pressure;altitude;pressure_sealevel;temperature;humidity
26192;BME280;13935;55.672;37.764;2023-06-26T00:00:39;99919.78;;;18.16;100.00
26192;BME280;13935;55.672;37.764;2023-06-26T00:01:41;99918.28;;;18.11;100.00
26192;BME280;13935;55.672;37.764;2023-06-26T00:02:44;99921.88;;;18.12;100.00
26192;BME280;13935;55.672;37.764;2023-06-26T00:03:47;99925.00;;;18.14;100.00
26192;BME280;13935;55.672;37.764;2023-06-26T00:04:49;99924.50;;;18.19;100.00
26192;BME280;13935;55.672;37.764;2023-06-26T00:05:50;99926.00;;;18.23;100.00
26192;BME280;13935;55.672;37.764;2023-06-26T00:06:52;99920.84;;;18.22;100.00
26192;BME280;13935;55.672;37.764;2023-06-26T00:07:55;99920.41;;;18.23;100.00
26192;BME280;13935;55.672;37.764;2023-06-26T00:08:57;99924.50;;;18.19;100.00
26192;BME280;13935;55.672;37.764;2023-06-26T00:10:01;99919.28;;;18.21;100.00
26192;BME280;13935;55.672;37.764;2023-06-26T00:11:04;99921.22;;;18.24;100.00
26192;BME280;13935;55.672;37.764;2023-06-26T00:12:06;99919.63;;;18.23;100.00
26192;BME280;13935;55.672;37.764;2023-06-26T00:13:08;99925.22;;;18.23;100.00
26192;BME280;13935;55.672;37.764;2023-06-26T00:14:13;99921.44;;;18.13;100.00
26192;BME280;13935;55.672;37.764;2023-06-26T00:15:15;99924.09;;;18.20;100.00
26192;BME280;13935;55.672;37.764;2023-06-26T00:16:17;99928.41;;;18.25;100.00
26192;BME280;13935;55.672;37.764;2023-06-26T00:17:19;99931.63;;;18.23;100.00
26192;BME280;13935;55.672;37.764;2023-06-26T00:18:21;99927.59;;;18.24;100.00
26192;BME280;13935;55.672;37.764;2023-06-26T00:19:24;99934.41;;;18.23;100.00
26192;BME280;13935;55.672;37.764;2023-06-26T00:20:29;99928.22;;;18.32;100.00
26192;BME280;13935;55.672;37.764;2023-06-26T00:21:31;99933.03;;;18.31;100.00
26192;BME280;13935;55.672;37.764;2023-06-26T00:22:33;99933.28;;;18.21;100.00
26192;BME280;13935;55.672;37.764;2023-06-26T00:23:36;99938.50;;;18.19;100.00
26192;BME280;13935;55.672;37.764;2023-06-26T00:24:41;99933.28;;;18.21;100.00
26192;BME280;13935;55.672;37.764;2023-06-26T00:25:43;99941.25;;;18.22;100.00
26192;BME280;13935;55.672;37.764;2023-06-26T00:26:46;99937.94;;;18.27;100.00
26192;BME280;13935;55.672;37.764;2023-06-26T00:27:48;99935.59;;;18.26;100.00
26192;BME280;13935;55.672;37.764;2023-06-26T00:28:52;99935.59;;;18.26;100.00
26192;BME280;13935;55.672;37.764;2023-06-26T00:29:54;99934.09;;;18.21;100.00
26192;BME280;13935;55.672;37.764;2023-06-26T00:30:57;99929.09;;;18.29;100.00
26192;BME280;13935;55.672;37.764;2023-06-26T00:31:59;99927.50;;;18.28;100.00
26192;BME280;13935;55.672;37.764;2023-06-26T00:33:01;99927.88;;;18.30;100.00
26192;BME280;13935;55.672;37.764;2023-06-26T00:34:06;99925.75;;;18.34;100.00
26192;BME280;13935;55.672;37.764;2023-06-26T00:35:08;99930.13;;;18.35;100.00
26192;BME280;13935;55.672;37.764;2023-06-26T00:36:10;99929.69;;;18.36;100.00
26192;BME280;13935;55.672;37.764;2023-06-26T00:37:12;99924.53;;;18.35;100.00
26192;BME280;13935;55.672;37.764;2023-06-26T00:38:14;99932.16;;;18.34;100.00
26192;BME280;13935;55.672;37.764;2023-06-26T00:39:16;99927.34;;;18.35;100.00
26192;BME280;13935;55.672;37.764;2023-06-26T00:40:18;99926.13;;;18.36;100.00
26192;BME280;13935;55.672;37.764;2023-06-26T00:41:20;99918.06;;;18.22;100.00
26192;BME280;13935;55.672;37.764;2023-06-26T00:42:22;99925.72;;;18.18;100.00
26192;BME280;13935;55.672;37.764;2023-06-26T00:44:51;99923.78;;;18.15;100.00
26192;BME280;13935;55.672;37.764;2023-06-26T00:45:53;99930.97;;;18.16;100.00
26192;BME280;13935;55.672;37.764;2023-06-26T00:46:55;99924.69;;;18.12;100.00
26192;BME280;13935;55.672;37.764;2023-06-26T00:47:58;99915.53;;;18.08;100.00
26192;BME280;13935;55.672;37.764;2023-06-26T00:49:02;99922.31;;;18.10;100.00
26192;BME280;13935;55.672;37.764;2023-06-26T00:50:05;99915.13;;;18.09;100.00
26192;BME280;13935;55.672;37.764;2023-06-26T00:51:07;99925.53;;;18.09;100.00
26192;BME280;13935;55.672;37.764;2023-06-26T00:52:09;99917.50;;;18.11;100.00
26192;BME280;13935;55.672;37.764;2023-06-26T00:53:11;99917.50;;;18.11;100.00
26192;BME280;13935;55.672;37.764;2023-06-26T00:54:14;99916.06;;;18.03;100.00
26192;BME280;13935;55.672;37.764;2023-06-26T00:55:22;99916.97;;;18.00;100.00
26192;BME280;13935;55.672;37.764;2023-06-26T00:56:24;99915.53;;;17.92;100.00
26192;BME280;13935;55.672;37.764;2023-06-26T00:57:26;99910.78;;;17.89;100.00
26192;BME280;13935;55.672;37.764;2023-06-26T00:58:30;99921.84;;;17.96;100.00
26192;BME280;13935;55.672;37.764;2023-06-26T00:59:32;99917.13;;;17.93;100.00
26192;BME280;13935;55.672;37.764;2023-06-26T01:00:34;99917.13;;;17.93;100.00
26192;BME280;13935;55.672;37.764;2023-06-26T01:01:37;99921.50;;;17.94;100.00
26192;BME280;13935;55.672;37.764;2023-06-26T01:02:39;99919.72;;;17.84;100.00
26192;BME280;13935;55.672;37.764;2023-06-26T01:03:42;99911.84;;;17.79;100.00
26192;BME280;13935;55.672;37.764;2023-06-26T01:04:44;99908.75;;;17.74;100.00
26192;BME280;13935;55.672;37.764;2023-06-26T01:05:48;99915.66;;;17.69;100.00
26192;BME280;13935;55.672;37.764;2023-06-26T01:06:51;99906.91;;;17.67;100.00
26192;BME280;13935;55.672;37.764;2023-06-26T01:07:53;99915.81;;;17.62;100.00
26192;BME280;13935;55.672;37.764;2023-06-26T01:08:57;99907.50;;;17.59;100.00
26192;BME280;13935;55.672;37.764;2023-06-26T01:09:59;99915.53;;;17.57;100.00
26192;BME280;13935;55.672;37.764;2023-06-26T01:11:01;99917.25;;;17.51;100.00
26192;BME280;13935;55.672;37.764;2023-06-26T01:12:04;99919.97;;;17.54;100.00
26192;BME280;13935;55.672;37.764;2023-06-26T01:13:06;99908.34;;;17.56;100.00
26192;BME280;13935;55.672;37.764;2023-06-26T01:14:08;99914.81;;;17.53;100.00
26192;BME280;13935;55.672;37.764;2023-06-26T01:15:11;99913.16;;;17.55;100.00
26192;BME280;13935;55.672;37.764;2023-06-26T01:16:14;99912.28;;;17.58;100.00
26192;BME280;13935;55.672;37.764;2023-06-26T01:17:16;99909.00;;;17.63;100.00
26192;BME280;13935;55.672;37.764;2023-06-26T01:18:19;99909.16;;;17.56;100.00
26192;BME280;13935;55.672;37.764;2023-06-26T01:19:24;99907.66;;;17.52;100.00
26192;BME280;13935;55.672;37.764;2023-06-26T01:20:29;99912.47;;;17.51;100.00
26192;BME280;13935;55.672;37.764;2023-06-26T01:21:32;99914.19;;;17.45;100.00
26192;BME280;13935;55.672;37.764;2023-06-26T01:22:58;99907.00;;;17.44;100.00
26192;BME280;13935;55.672;37.764;2023-06-26T01:24:10;99909.44;;;17.42;100.00
26192;BME280;13935;55.672;37.764;2023-06-26T01:26:44;99912.75;;;17.37;100.00
26192;BME280;13935;55.672;37.764;2023-06-26T01:27:50;99916.78;;;17.36;100.00
26192;BME280;13935;55.672;37.764;2023-06-26T01:28:52;99909.97;;;17.37;100.00
26192;BME280;13935;55.672;37.764;2023-06-26T01:29:55;99912.38;;;17.35;100.00
26192;BME280;13935;55.672;37.764;2023-06-26T01:30:58;99916.06;;;17.32;100.00
26192;BME280;13935;55.672;37.764;2023-06-26T01:32:00;99920.84;;;17.32;100.00
26192;BME280;13935;55.672;37.764;2023-06-26T01:33:03;99912.75;;;17.37;100.00
26192;BME280;13935;55.672;37.764;2023-06-26T01:34:06;99922.28;;;17.40;100.00
26192;BME280;13935;55.672;37.764;2023-06-26T01:35:08;99914.69;;;17.40;100.00
26192;BME280;13935;55.672;37.764;2023-06-26T01:36:11;99913.53;;;17.38;100.00
26192;BME280;13935;55.672;37.764;2023-06-26T01:37:13;99921.84;;;17.41;100.00
26192;BME280;13935;55.672;37.764;2023-06-26T01:38:16;99916.00;;;17.36;100.00
26192;BME280;13935;55.672;37.764;2023-06-26T01:39:19;99927.97;;;17.36;100.00
26192;BME280;13935;55.672;37.764;2023-06-26T01:40:21;99925.66;;;17.31;100.00
26192;BME280;13935;55.672;37.764;2023-06-26T01:41:22;99920.84;;;17.32;100.00
26192;BME280;13935;55.672;37.764;2023-06-26T01:42:25;99922.72;;;17.38;100.00
26192;BME280;13935;55.672;37.764;2023-06-26T01:44:43;99921.84;;;17.41;100.00
26192;BME280;13935;55.672;37.764;2023-06-26T01:45:45;99923.81;;;17.44;100.00
26192;BME280;13935;55.672;37.764;2023-06-26T01:47:58;99931.97;;;17.35;100.00
26192;BME280;13935;55.672;37.764;2023-06-26T01:49:06;99928.81;;;17.33;100.00
26192;BME280;13935;55.672;37.764;2023-06-26T01:50:17;99920.19;;;17.24;100.00
26192;BME280;13935;55.672;37.764;2023-06-26T01:51:23;99933.38;;;17.24;100.00
26192;BME280;13935;55.672;37.764;2023-06-26T01:52:32;99927.50;;;17.18;100.00
26192;BME280;13935;55.672;37.764;2023-06-26T01:53:41;99923.91;;;17.18;100.00
26192;BME280;13935;55.672;37.764;2023-06-26T01:55:55;99921.91;;;17.18;100.00
26192;BME280;13935;55.672;37.764;2023-06-26T01:57:01;99931.88;;;17.19;100.00
26192;BME280;13935;55.672;37.764;2023-06-26T01:58:03;99927.88;;;17.20;100.00
26192;BME280;13935;55.672;37.764;2023-06-26T01:59:07;99922.97;;;17.24;100.00
26192;BME280;13935;55.672;37.764;2023-06-26T02:00:11;99926.50;;;17.28;100.00
26192;BME280;13935;55.672;37.764;2023-06-26T02:01:15;99935.00;;;17.21;100.00
26192;BME280;13935;55.672;37.764;2023-06-26T02:02:20;99929.50;;;17.18;100.00
26192;BME280;13935;55.672;37.764;2023-06-26T02:03:26;99942.69;;;17.17;100.00
26192;BME280;13935;55.672;37.764;2023-06-26T02:04:29;99946.00;;;17.13;100.00
26192;BME280;13935;55.672;37.764;2023-06-26T02:05:34;99940.47;;;17.09;100.00
26192;BME280;13935;55.672;37.764;2023-06-26T02:06:38;99944.78;;;17.14;100.00
26192;BME280;13935;55.672;37.764;2023-06-26T02:07:41;99943.41;;;17.21;100.00
26192;BME280;13935;55.672;37.764;2023-06-26T02:10:27;99940.53;;;17.25;100.00
26192;BME280;13935;55.672;37.764;2023-06-26T02:11:30;99941.34;;;17.25;100.00
26192;BME280;13935;55.672;37.764;2023-06-26T02:12:37;99941.66;;;17.31;100.00
26192;BME280;13935;55.672;37.764;2023-06-26T02:38:22;99941.56;;;17.34;100.00
26192;BME280;13935;55.672;37.764;2023-06-26T02:44:52;99942.25;;;17.42;100.00
26192;BME280;13935;55.672;37.764;2023-06-26T02:50:43;99936.63;;;17.61;100.00
26192;BME280;13935;55.672;37.764;2023-06-26T02:51:51;99937.00;;;17.63;100.00
26192;BME280;13935;55.672;37.764;2023-06-26T02:53:00;99936.09;;;17.66;100.00
26192;BME280;13935;55.672;37.764;2023-06-26T02:54:04;99936.66;;;17.77;100.00
26192;BME280;13935;55.672;37.764;2023-06-26T02:55:06;99930.91;;;17.84;100.00
26192;BME280;13935;55.672;37.764;2023-06-26T02:56:08;99939.53;;;18.09;100.00
26192;BME280;13935;55.672;37.764;2023-06-26T02:57:14;99932.50;;;18.36;100.00
26192;BME280;13935;55.672;37.764;2023-06-26T02:58:17;99936.06;;;19.00;100.00
26192;BME280;13935;55.672;37.764;2023-06-26T02:59:19;99928.66;;;19.63;100.00
26192;BME280;13935;55.672;37.764;2023-06-26T03:00:21;99932.44;;;20.34;100.00
26192;BME280;13935;55.672;37.764;2023-06-26T03:01:26;99924.38;;;20.95;100.00
26192;BME280;13935;55.672;37.764;2023-06-26T03:02:28;99929.72;;;20.81;100.00
26192;BME280;13935;55.672;37.764;2023-06-26T03:03:30;99928.44;;;21.15;100.00
26192;BME280;13935;55.672;37.764;2023-06-26T03:04:32;99932.25;;;21.21;100.00
26192;BME280;13935;55.672;37.764;2023-06-26T03:05:39;99928.47;;;21.37;100.00
26192;BME280;13935;55.672;37.764;2023-06-26T03:06:41;99918.94;;;21.55;100.00
26192;BME280;13935;55.672;37.764;2023-06-26T03:07:43;99932.00;;;21.92;100.00
26192;BME280;13935;55.672;37.764;2023-06-26T03:08:45;99926.69;;;22.25;98.15
26192;BME280;13935;55.672;37.764;2023-06-26T03:09:49;99930.78;;;22.81;92.16
26192;BME280;13935;55.672;37.764;2023-06-26T03:10:51;99936.69;;;22.56;92.12
26192;BME280;13935;55.672;37.764;2023-06-26T03:11:53;99930.78;;;22.81;90.88
26192;BME280;13935;55.672;37.764;2023-06-26T03:12:57;99932.91;;;22.50;95.07
26192;BME280;13935;55.672;37.764;2023-06-26T03:13:59;99930.59;;;22.27;93.05
26192;BME280;13935;55.672;37.764;2023-06-26T03:15:01;99938.53;;;22.11;91.31
26192;BME280;13935;55.672;37.764;2023-06-26T03:16:04;99931.81;;;21.87;92.03
26192;BME280;13935;55.672;37.764;2023-06-26T03:17:06;99932.09;;;22.10;91.98
26192;BME280;13935;55.672;37.764;2023-06-26T03:18:10;99924.91;;;22.48;88.62
26192;BME280;13935;55.672;37.764;2023-06-26T03:19:12;99923.84;;;22.64;85.78
26192;BME280;13935;55.672;37.764;2023-06-26T03:20:37;99918.50;;;22.57;81.17
26192;BME280;13935;55.672;37.764;2023-06-26T03:21:39;99922.47;;;22.68;80.49
26192;BME280;13935;55.672;37.764;2023-06-26T03:22:41;99920.66;;;22.35;81.84
26192;BME280;13935;55.672;37.764;2023-06-26T03:23:44;99918.97;;;22.16;83.98
26192;BME280;13935;55.672;37.764;2023-06-26T03:24:47;99922.09;;;22.18;84.22
26192;BME280;13935;55.672;37.764;2023-06-26T03:25:49;99927.59;;;22.22;84.30
26192;BME280;13935;55.672;37.764;2023-06-26T03:27:20;99915.59;;;22.87;77.58
26192;BME280;13935;55.672;37.764;2023-06-26T03:28:23;99926.13;;;23.58;73.37
26192;BME280;13935;55.672;37.764;2023-06-26T03:29:25;99923.84;;;23.98;70.96
26192;BME280;13935;55.672;37.764;2023-06-26T03:30:27;99929.25;;;23.69;72.01
26192;BME280;13935;55.672;37.764;2023-06-26T03:31:31;99915.47;;;23.17;72.96
26192;BME280;13935;55.672;37.764;2023-06-26T03:32:33;99921.28;;;23.32;72.31
26192;BME280;13935;55.672;37.764;2023-06-26T03:33:36;99918.53;;;22.66;75.88
26192;BME280;13935;55.672;37.764;2023-06-26T03:34:39;99919.81;;;22.92;74.89
26192;BME280;13935;55.672;37.764;2023-06-26T03:35:41;99918.28;;;23.44;72.30
26192;BME280;13935;55.672;37.764;2023-06-26T03:36:45;99921.72;;;23.57;68.95
26192;BME280;13935;55.672;37.764;2023-06-26T03:37:48;99919.69;;;23.67;68.44
26192;BME280;13935;55.672;37.764;2023-06-26T03:38:52;99920.44;;;24.67;64.60
26192;BME280;13935;55.672;37.764;2023-06-26T03:39:59;99928.69;;;25.26;60.29
26192;BME280;13935;55.672;37.764;2023-06-26T03:41:01;99925.94;;;25.18;60.02
26192;BME280;13935;55.672;37.764;2023-06-26T03:42:03;99922.81;;;25.96;56.60
26192;BME280;13935;55.672;37.764;2023-06-26T03:43:06;99920.22;;;25.41;56.78
26192;BME280;13935;55.672;37.764;2023-06-26T03:44:19;99921.41;;;25.63;58.29
26192;BME280;13935;55.672;37.764;2023-06-26T03:45:23;99923.31;;;25.81;56.65
26192;BME280;13935;55.672;37.764;2023-06-26T03:46:25;99919.72;;;24.81;60.71
26192;BME280;13935;55.672;37.764;2023-06-26T03:47:26;99930.16;;;24.99;59.23
26192;BME280;13935;55.672;37.764;2023-06-26T03:48:30;99916.63;;;24.38;63.09
26192;BME280;13935;55.672;37.764;2023-06-26T03:49:34;99918.19;;;23.98;65.31
26192;BME280;13935;55.672;37.764;2023-06-26T03:50:37;99921.03;;;24.39;64.48
26192;BME280;13935;55.672;37.764;2023-06-26T03:51:39;99914.31;;;24.28;65.33
26192;BME280;13935;55.672;37.764;2023-06-26T03:52:41;99919.03;;;24.31;63.74
26192;BME280;13935;55.672;37.764;2023-06-26T03:53:46;99921.13;;;23.53;66.99
26192;BME280;13935;55.672;37.764;2023-06-26T03:54:49;99921.41;;;24.64;63.53
26192;BME280;13935;55.672;37.764;2023-06-26T03:55:52;99915.53;;;24.36;63.41
26192;BME280;13935;55.672;37.764;2023-06-26T03:56:56;99920.53;;;24.41;63.21
26192;BME280;13935;55.672;37.764;2023-06-26T03:57:58;99922.16;;;24.33;62.90
26192;BME280;13935;55.672;37.764;2023-06-26T03:59:02;99922.59;;;24.72;60.26
26192;BME280;13935;55.672;37.764;2023-06-26T04:00:06;99921.22;;;25.15;58.96
26192;BME280;13935;55.672;37.764;2023-06-26T04:01:15;99910.44;;;26.77;53.14
26192;BME280;13935;55.672;37.764;2023-06-26T04:02:18;99915.81;;;26.55;51.90
26192;BME280;13935;55.672;37.764;2023-06-26T04:03:20;99915.97;;;25.22;55.16
26192;BME280;13935;55.672;37.764;2023-06-26T04:04:23;99921.94;;;25.91;53.54
26192;BME280;13935;55.672;37.764;2023-06-26T04:05:25;99928.31;;;26.00;53.62
26192;BME280;13935;55.672;37.764;2023-06-26T04:06:27;99915.28;;;26.22;53.49
26192;BME280;13935;55.672;37.764;2023-06-26T04:07:29;99905.31;;;26.61;51.51
26192;BME280;13935;55.672;37.764;2023-06-26T04:08:33;99909.38;;;26.40;51.46
26192;BME280;13935;55.672;37.764;2023-06-26T04:09:35;99910.59;;;26.68;50.88
26192;BME280;13935;55.672;37.764;2023-06-26T04:10:37;99909.78;;;27.22;49.65
26192;BME280;13935;55.672;37.764;2023-06-26T04:11:39;99909.03;;;27.27;49.31
26192;BME280;13935;55.672;37.764;2023-06-26T04:12:41;99912.19;;;27.09;49.23
26192;BME280;13935;55.672;37.764;2023-06-26T04:13:43;99914.06;;;27.82;47.82
26192;BME280;13935;55.672;37.764;2023-06-26T04:14:47;99912.88;;;27.43;49.11
26192;BME280;13935;55.672;37.764;2023-06-26T04:15:49;99916.88;;;27.77;47.24
26192;BME280;13935;55.672;37.764;2023-06-26T04:16:53;99916.09;;;28.07;46.41
26192;BME280;13935;55.672;37.764;2023-06-26T04:17:55;99907.59;;;28.38;44.57
26192;BME280;13935;55.672;37.764;2023-06-26T04:18:57;99913.97;;;27.51;46.93
26192;BME280;13935;55.672;37.764;2023-06-26T04:19:59;99916.19;;;28.80;45.09
26192;BME280;13935;55.672;37.764;2023-06-26T04:21:06;99913.72;;;28.62;45.18
26192;BME280;13935;55.672;37.764;2023-06-26T04:22:08;99904.16;;;28.65;44.26
26192;BME280;13935;55.672;37.764;2023-06-26T04:23:10;99912.69;;;28.65;44.65
26192;BME280;13935;55.672;37.764;2023-06-26T04:24:12;99909.53;;;29.57;43.17
26192;BME280;13935;55.672;37.764;2023-06-26T04:25:16;99910.06;;;28.25;44.07
26192;BME280;13935;55.672;37.764;2023-06-26T04:26:18;99916.00;;;29.52;44.02
26192;BME280;13935;55.672;37.764;2023-06-26T04:27:20;99911.56;;;29.46;41.95
26192;BME280;13935;55.672;37.764;2023-06-26T04:28:22;99915.53;;;29.81;41.27
26192;BME280;13935;55.672;37.764;2023-06-26T04:29:26;99924.72;;;30.56;39.59
26192;BME280;13935;55.672;37.764;2023-06-26T04:30:28;99912.19;;;31.48;38.22
26192;BME280;13935;55.672;37.764;2023-06-26T04:31:31;99910.69;;;31.31;38.26
26192;BME280;13935;55.672;37.764;2023-06-26T04:32:33;99918.72;;;30.38;38.73
26192;BME280;13935;55.672;37.764;2023-06-26T04:33:36;99917.09;;;30.91;38.57
26192;BME280;13935;55.672;37.764;2023-06-26T04:34:44;99919.81;;;31.81;37.32
26192;BME280;13935;55.672;37.764;2023-06-26T04:35:45;99922.59;;;31.46;37.97
26192;BME280;13935;55.672;37.764;2023-06-26T04:36:50;99923.50;;;31.13;37.70
26192;BME280;13935;55.672;37.764;2023-06-26T04:37:52;99910.94;;;32.48;35.69
26192;BME280;13935;55.672;37.764;2023-06-26T04:38:54;99913.03;;;31.84;36.69
26192;BME280;13935;55.672;37.764;2023-06-26T04:39:57;99913.22;;;31.51;37.25
26192;BME280;13935;55.672;37.764;2023-06-26T04:41:00;99922.22;;;31.20;37.82
26192;BME280;13935;55.672;37.764;2023-06-26T04:42:02;99918.94;;;31.45;37.90
26192;BME280;13935;55.672;37.764;2023-06-26T04:43:05;99919.66;;;32.08;36.90
26192;BME280;13935;55.672;37.764;2023-06-26T04:44:07;99920.09;;;33.24;33.86
26192;BME280;13935;55.672;37.764;2023-06-26T04:45:09;99919.69;;;32.90;33.73
26192;BME280;13935;55.672;37.764;2023-06-26T04:46:10;99924.31;;;33.78;32.93
26192;BME280;13935;55.672;37.764;2023-06-26T04:47:12;99919.97;;;33.71;32.69
26192;BME280;13935;55.672;37.764;2023-06-26T04:48:16;99920.19;;;34.10;32.28
26192;BME280;13935;55.672;37.764;2023-06-26T04:49:18;99919.53;;;34.48;31.94
26192;BME280;13935;55.672;37.764;2023-06-26T04:50:22;99923.72;;;35.56;30.08
26192;BME280;13935;55.672;37.764;2023-06-26T04:51:26;99929.69;;;35.45;30.35
26192;BME280;13935;55.672;37.764;2023-06-26T04:52:31;99922.84;;;35.61;30.14
26192;BME280;13935;55.672;37.764;2023-06-26T04:53:33;99917.19;;;34.91;30.40
26192;BME280;13935;55.672;37.764;2023-06-26T04:54:35;99919.31;;;35.16;30.33
26192;BME280;13935;55.672;37.764;2023-06-26T04:55:37;99917.69;;;35.80;29.09
26192;BME280;13935;55.672;37.764;2023-06-26T04:56:40;99923.44;;;36.13;28.37
26192;BME280;13935;55.672;37.764;2023-06-26T04:57:42;99920.97;;;35.97;28.24
26192;BME280;13935;55.672;37.764;2023-06-26T04:58:45;99908.66;;;35.37;28.66
26192;BME280;13935;55.672;37.764;2023-06-26T04:59:47;99923.06;;;34.98;28.85
26192;BME280;13935;55.672;37.764;2023-06-26T05:00:49;99913.03;;;35.77;27.82
26192;BME280;13935;55.672;37.764;2023-06-26T05:01:51;99912.00;;;35.87;27.90
26192;BME280;13935;55.672;37.764;2023-06-26T05:02:52;99911.78;;;35.13;28.47
26192;BME280;13935;55.672;37.764;2023-06-26T05:04:02;99916.47;;;36.09;27.65
26192;BME280;13935;55.672;37.764;2023-06-26T05:05:04;99916.50;;;35.63;28.14
26192;BME280;13935;55.672;37.764;2023-06-26T05:06:06;99917.22;;;36.42;28.41
26192;BME280;13935;55.672;37.764;2023-06-26T05:07:10;99918.88;;;35.25;29.02
26192;BME280;13935;55.672;37.764;2023-06-26T05:08:18;99917.13;;;36.35;27.51
26192;BME280;13935;55.672;37.764;2023-06-26T05:09:20;99923.81;;;36.50;27.14
26192;BME280;13935;55.672;37.764;2023-06-26T05:10:22;99916.88;;;37.22;25.95
26192;BME280;13935;55.672;37.764;2023-06-26T05:11:25;99913.75;;;36.24;26.89
26192;BME280;13935;55.672;37.764;2023-06-26T05:12:26;99918.75;;;37.47;26.20
26192;BME280;13935;55.672;37.764;2023-06-26T05:13:28;99920.69;;;37.52;25.42
26192;BME280;13935;55.672;37.764;2023-06-26T05:14:31;99924.72;;;37.85;25.54
26192;BME280;13935;55.672;37.764;2023-06-26T05:15:32;99926.69;;;34.86;27.66
26192;BME280;13935;55.672;37.764;2023-06-26T05:16:34;99922.56;;;37.07;26.10
26192;BME280;13935;55.672;37.764;2023-06-26T05:17:36;99930.44;;;36.38;26.11
26192;BME280;13935;55.672;37.764;2023-06-26T05:18:38;99924.16;;;36.06;26.71
26192;BME280;13935;55.672;37.764;2023-06-26T05:19:40;99921.44;;;36.62;25.44
26192;BME280;13935;55.672;37.764;2023-06-26T05:20:42;99922.78;;;36.40;25.68
26192;BME280;13935;55.672;37.764;2023-06-26T05:21:44;99918.44;;;36.95;25.24
26192;BME280;13935;55.672;37.764;2023-06-26T05:22:47;99921.59;;;37.32;24.55
26192;BME280;13935;55.672;37.764;2023-06-26T05:23:49;99925.84;;;37.82;23.98
26192;BME280;13935;55.672;37.764;2023-06-26T05:24:54;99923.09;;;36.98;24.75
26192;BME280;13935;55.672;37.764;2023-06-26T05:25:56;99919.06;;;35.53;26.08
26192;BME280;13935;55.672;37.764;2023-06-26T05:26:58;99922.31;;;33.73;27.77
26192;BME280;13935;55.672;37.764;2023-06-26T05:28:00;99918.41;;;34.38;27.10
26192;BME280;13935;55.672;37.764;2023-06-26T05:29:02;99922.63;;;34.82;27.17
26192;BME280;13935;55.672;37.764;2023-06-26T05:30:05;99916.66;;;35.05;27.29
26192;BME280;13935;55.672;37.764;2023-06-26T05:31:07;99921.34;;;34.33;27.88
26192;BME280;13935;55.672;37.764;2023-06-26T05:32:09;99923.13;;;36.57;25.30
26192;BME280;13935;55.672;37.764;2023-06-26T05:33:11;99919.94;;;37.52;24.91
26192;BME280;13935;55.672;37.764;2023-06-26T05:34:14;99910.41;;;35.66;25.55
26192;BME280;13935;55.672;37.764;2023-06-26T05:35:16;99918.19;;;36.65;24.51
26192;BME280;13935;55.672;37.764;2023-06-26T05:36:19;99912.25;;;36.10;24.45
26192;BME280;13935;55.672;37.764;2023-06-26T05:37:22;99922.53;;;35.52;24.63
26192;BME280;13935;55.672;37.764;2023-06-26T05:38:24;99929.50;;;35.43;24.74
26192;BME280;13935;55.672;37.764;2023-06-26T05:39:26;99917.97;;;34.91;25.43
26192;BME280;13935;55.672;37.764;2023-06-26T05:40:29;99915.84;;;35.57;24.85
26192;BME280;13935;55.672;37.764;2023-06-26T05:41:30;99917.19;;;35.17;25.20
26192;BME280;13935;55.672;37.764;2023-06-26T05:42:33;99915.09;;;34.34;25.55
26192;BME280;13935;55.672;37.764;2023-06-26T05:43:35;99918.84;;;35.51;24.73
26192;BME280;13935;55.672;37.764;2023-06-26T05:44:39;99918.66;;;35.95;24.19
26192;BME280;13935;55.672;37.764;2023-06-26T05:45:41;99911.63;;;36.24;24.22
26192;BME280;13935;55.672;37.764;2023-06-26T05:46:43;99908.19;;;35.59;24.60
26192;BME280;13935;55.672;37.764;2023-06-26T05:47:46;99913.97;;;35.33;25.52
26192;BME280;13935;55.672;37.764;2023-06-26T05:48:48;99913.19;;;36.45;23.71
26192;BME280;13935;55.672;37.764;2023-06-26T05:49:52;99916.84;;;35.92;23.81
26192;BME280;13935;55.672;37.764;2023-06-26T05:50:54;99923.94;;;35.91;23.91
26192;BME280;13935;55.672;37.764;2023-06-26T05:51:56;99923.41;;;36.46;23.23
26192;BME280;13935;55.672;37.764;2023-06-26T05:52:58;99915.56;;;35.80;23.61
26192;BME280;13935;55.672;37.764;2023-06-26T05:54:00;99927.38;;;35.90;23.20
26192;BME280;13935;55.672;37.764;2023-06-26T05:55:02;99921.41;;;35.88;23.34
26192;BME280;13935;55.672;37.764;2023-06-26T05:56:04;99912.25;;;36.30;23.37
26192;BME280;13935;55.672;37.764;2023-06-26T05:57:06;99911.19;;;36.81;23.20
26192;BME280;13935;55.672;37.764;2023-06-26T05:58:09;99915.31;;;36.25;23.56
26192;BME280;13935;55.672;37.764;2023-06-26T05:59:12;99915.63;;;36.01;23.42
26192;BME280;13935;55.672;37.764;2023-06-26T06:00:15;99908.00;;;36.44;23.13
26192;BME280;13935;55.672;37.764;2023-06-26T06:01:17;99908.13;;;36.59;22.83
26192;BME280;13935;55.672;37.764;2023-06-26T06:02:19;99910.28;;;36.66;23.09
26192;BME280;13935;55.672;37.764;2023-06-26T06:03:21;99905.50;;;36.89;22.86
26192;BME280;13935;55.672;37.764;2023-06-26T06:04:23;99921.34;;;36.75;22.84
26192;BME280;13935;55.672;37.764;2023-06-26T06:05:25;99909.31;;;35.43;24.16
26192;BME280;13935;55.672;37.764;2023-06-26T06:06:27;99902.44;;;35.46;24.42
26192;BME280;13935;55.672;37.764;2023-06-26T06:07:29;99914.97;;;35.36;24.52
26192;BME280;13935;55.672;37.764;2023-06-26T06:08:31;99910.41;;;35.66;24.13
26192;BME280;13935;55.672;37.764;2023-06-26T06:09:33;99909.66;;;34.31;25.22
26192;BME280;13935;55.672;37.764;2023-06-26T06:10:35;99906.97;;;34.02;25.54
26192;BME280;13935;55.672;37.764;2023-06-26T06:11:38;99903.22;;;34.25;25.13